createdAt,value
2022-12-31T00:01:14.703Z,997.86
2022-12-31T00:04:23.531Z,997.80
2022-12-31T00:08:05.486Z,997.84
2022-12-31T00:11:13.845Z,997.82
2022-12-31T00:14:22.667Z,997.93
2022-12-31T00:17:31.679Z,997.91
2022-12-31T00:20:39.771Z,997.93
2022-12-31T00:23:48.806Z,997.92
2022-12-31T00:26:57.700Z,998.00
2022-12-31T00:30:05.598Z,997.99
2022-12-31T00:33:14.515Z,997.94
2022-12-31T00:36:23.070Z,997.90
2022-12-31T00:39:31.629Z,997.95
2022-12-31T00:42:40.591Z,998.01
2022-12-31T00:45:49.127Z,998.15
2022-12-31T00:48:57.575Z,997.97
2022-12-31T00:52:06.475Z,997.98
2022-12-31T00:55:14.984Z,998.05
2022-12-31T00:58:23.339Z,998.06
2022-12-31T01:01:33.212Z,998.03
2022-12-31T01:04:41.339Z,998.03
2022-12-31T01:07:49.807Z,998.10
2022-12-31T01:10:58.489Z,998.02
2022-12-31T01:14:07.583Z,998.08
2022-12-31T01:17:16.073Z,998.02
2022-12-31T01:20:24.584Z,998.01
2022-12-31T01:23:33.332Z,998.04
2022-12-31T01:26:41.935Z,998.13
2022-12-31T01:29:50.725Z,998.11
2022-12-31T01:32:59.570Z,998.13
2022-12-31T01:36:08.307Z,998.21
2022-12-31T01:39:16.958Z,998.20
2022-12-31T01:42:25.503Z,998.32
2022-12-31T01:45:33.966Z,998.34
2022-12-31T01:48:43.000Z,998.31
2022-12-31T01:51:51.599Z,998.34
2022-12-31T01:55:00.313Z,998.37
2022-12-31T01:58:09.074Z,998.14
2022-12-31T02:01:17.479Z,998.14
2022-12-31T02:04:26.158Z,998.22
2022-12-31T02:07:34.911Z,998.15
2022-12-31T02:10:42.856Z,998.20
2022-12-31T02:13:58.011Z,998.23
2022-12-31T02:16:56.578Z,998.19
2022-12-31T02:20:04.501Z,998.18
2022-12-31T02:23:13.149Z,998.08
2022-12-31T02:26:21.274Z,998.04
2022-12-31T02:29:29.755Z,997.96
2022-12-31T02:32:38.593Z,997.99
2022-12-31T02:35:46.918Z,997.93
2022-12-31T02:38:55.452Z,997.94
2022-12-31T02:42:04.059Z,997.79
2022-12-31T02:45:13.169Z,997.83
2022-12-31T02:48:21.607Z,997.78
2022-12-31T02:51:30.241Z,997.81
2022-12-31T02:54:39.163Z,997.70
2022-12-31T02:57:47.655Z,997.71
2022-12-31T03:00:56.170Z,997.71
2022-12-31T03:04:05.224Z,997.60
2022-12-31T03:07:13.210Z,997.49
2022-12-31T03:10:22.187Z,997.49
2022-12-31T03:13:31.319Z,997.42
2022-12-31T03:16:39.375Z,997.40
2022-12-31T03:19:48.115Z,997.40
2022-12-31T03:22:56.845Z,997.39
2022-12-31T03:26:04.980Z,997.50
2022-12-31T03:29:14.017Z,997.48
2022-12-31T03:32:22.977Z,997.43
2022-12-31T03:35:31.032Z,997.42
2022-12-31T03:38:40.140Z,997.37
2022-12-31T03:41:48.173Z,997.29
2022-12-31T03:44:56.624Z,997.21
2022-12-31T03:48:05.412Z,997.15
2022-12-31T03:51:13.935Z,997.10
2022-12-31T03:54:22.264Z,997.11
2022-12-31T03:57:30.798Z,997.12
2022-12-31T04:00:39.245Z,997.01
2022-12-31T04:03:48.189Z,997.07
2022-12-31T04:06:56.335Z,997.05
2022-12-31T04:10:05.253Z,997.06
2022-12-31T04:13:13.955Z,996.98
2022-12-31T04:16:22.250Z,996.99
2022-12-31T04:19:31.326Z,996.94
2022-12-31T04:22:40.197Z,996.94
2022-12-31T04:25:48.203Z,996.91
2022-12-31T04:28:56.965Z,996.78
2022-12-31T04:32:05.512Z,996.63
2022-12-31T04:35:13.981Z,996.60
2022-12-31T04:38:22.865Z,996.62
2022-12-31T04:41:31.448Z,996.60
2022-12-31T04:44:40.100Z,996.64
2022-12-31T04:47:49.833Z,996.53
2022-12-31T04:50:58.029Z,996.57
2022-12-31T04:54:06.898Z,996.53
2022-12-31T04:57:15.404Z,996.46
2022-12-31T05:00:24.076Z,996.36
2022-12-31T05:03:32.676Z,996.47
2022-12-31T05:06:41.314Z,996.44
2022-12-31T05:09:50.039Z,996.23
2022-12-31T05:12:58.827Z,996.30
2022-12-31T05:16:07.453Z,996.23
2022-12-31T05:19:15.892Z,996.20
2022-12-31T05:22:25.042Z,995.99
2022-12-31T05:25:33.441Z,996.07
2022-12-31T05:28:42.132Z,996.05
2022-12-31T05:31:50.399Z,996.00
2022-12-31T05:34:59.394Z,996.02
2022-12-31T05:38:07.996Z,996.02
2022-12-31T05:41:16.203Z,996.16
2022-12-31T05:44:25.074Z,996.13
2022-12-31T05:47:33.751Z,996.30
2022-12-31T05:50:42.046Z,996.27
2022-12-31T05:53:51.131Z,996.28
2022-12-31T05:56:59.707Z,996.28
2022-12-31T06:00:08.125Z,996.37
2022-12-31T06:03:17.142Z,996.42
2022-12-31T06:06:25.282Z,996.39
2022-12-31T06:09:34.522Z,996.41
2022-12-31T06:12:43.450Z,996.47
2022-12-31T06:15:51.595Z,996.62
2022-12-31T06:19:00.473Z,996.84
2022-12-31T06:22:09.575Z,996.88
2022-12-31T06:25:17.783Z,997.08
2022-12-31T06:28:26.759Z,997.14
2022-12-31T06:31:35.813Z,997.23
2022-12-31T06:34:43.872Z,997.32
2022-12-31T06:37:53.041Z,997.50
2022-12-31T06:41:01.697Z,997.61
2022-12-31T06:44:10.336Z,997.64
2022-12-31T06:47:19.213Z,997.69
2022-12-31T06:50:27.823Z,997.68
2022-12-31T06:53:36.328Z,997.72
2022-12-31T06:56:45.046Z,997.71
2022-12-31T06:59:53.403Z,997.81
2022-12-31T07:03:01.975Z,997.74
2022-12-31T07:06:10.497Z,997.80
2022-12-31T07:09:19.387Z,997.81
2022-12-31T07:12:27.768Z,997.72
2022-12-31T07:15:36.221Z,997.70
2022-12-31T07:18:45.356Z,997.64
2022-12-31T07:21:53.541Z,997.60
2022-12-31T07:25:02.544Z,997.54
2022-12-31T07:28:12.265Z,997.53
2022-12-31T07:31:20.558Z,997.51
2022-12-31T07:34:30.124Z,997.56
2022-12-31T07:37:38.897Z,997.63
2022-12-31T07:40:47.416Z,997.59
2022-12-31T07:43:56.928Z,997.57
2022-12-31T07:47:05.523Z,997.52
2022-12-31T07:50:14.345Z,997.44
2022-12-31T07:53:23.407Z,997.39
2022-12-31T07:56:32.274Z,997.38
2022-12-31T07:59:40.867Z,997.41
2022-12-31T08:02:49.656Z,997.41
2022-12-31T08:05:58.695Z,997.47
2022-12-31T08:09:07.041Z,997.49
2022-12-31T08:12:15.803Z,997.47
2022-12-31T08:15:30.158Z,997.55
2022-12-31T08:18:28.388Z,997.62
2022-12-31T08:21:38.681Z,997.62
2022-12-31T08:24:47.607Z,997.74
2022-12-31T08:27:56.343Z,997.68
2022-12-31T08:31:04.719Z,997.64
2022-12-31T08:34:13.806Z,997.67
2022-12-31T08:37:21.783Z,997.76
2022-12-31T08:40:30.751Z,997.76
2022-12-31T08:43:39.855Z,997.79
2022-12-31T08:46:48.283Z,997.72
2022-12-31T08:49:56.855Z,997.79
2022-12-31T08:53:05.676Z,997.83
2022-12-31T08:56:14.378Z,998.16
2022-12-31T08:59:23.149Z,997.91
2022-12-31T09:02:32.069Z,998.20
2022-12-31T09:05:40.844Z,998.24
2022-12-31T09:08:49.429Z,998.26
2022-12-31T09:11:57.844Z,998.29
2022-12-31T09:15:06.251Z,998.45
2022-12-31T09:18:14.494Z,998.45
2022-12-31T09:21:23.519Z,998.44
2022-12-31T09:24:32.448Z,998.46
2022-12-31T09:27:40.864Z,998.54
2022-12-31T09:30:50.940Z,998.63
2022-12-31T09:34:00.169Z,998.66
2022-12-31T09:37:09.854Z,998.76
2022-12-31T09:40:19.715Z,998.65
2022-12-31T09:43:28.656Z,998.71
2022-12-31T09:46:37.734Z,998.73
2022-12-31T09:49:46.104Z,998.70
2022-12-31T09:52:54.559Z,998.69
2022-12-31T09:56:03.375Z,998.64
2022-12-31T09:59:03.936Z,998.53
2022-12-31T10:02:12.679Z,998.53
2022-12-31T10:05:21.020Z,998.40
2022-12-31T10:08:29.009Z,998.42
2022-12-31T10:11:37.663Z,998.37
2022-12-31T10:14:47.688Z,998.34
2022-12-31T10:17:56.072Z,998.40
2022-12-31T10:21:05.253Z,998.41
2022-12-31T10:24:13.935Z,998.46
2022-12-31T10:27:23.261Z,998.35
2022-12-31T10:31:24.206Z,998.36
2022-12-31T10:34:32.982Z,998.30
2022-12-31T10:37:41.354Z,998.31
2022-12-31T10:40:50.098Z,998.25
2022-12-31T10:43:58.666Z,998.35
2022-12-31T10:47:07.297Z,998.35
2022-12-31T10:50:15.909Z,998.42
2022-12-31T10:53:24.208Z,998.41
2022-12-31T10:56:33.453Z,998.33
2022-12-31T10:59:41.551Z,998.35
2022-12-31T11:02:49.999Z,998.27
2022-12-31T11:05:58.792Z,998.34
2022-12-31T11:09:07.223Z,998.31
2022-12-31T11:12:16.373Z,998.30
2022-12-31T11:15:25.366Z,998.28
2022-12-31T11:18:33.626Z,998.28
2022-12-31T11:21:42.598Z,998.36
2022-12-31T11:24:52.186Z,998.41
2022-12-31T11:28:00.287Z,998.41
2022-12-31T11:31:09.294Z,998.27
2022-12-31T11:34:18.002Z,998.48
2022-12-31T11:37:26.863Z,998.45
2022-12-31T11:40:35.629Z,998.42
2022-12-31T11:43:43.989Z,998.51
2022-12-31T11:46:52.572Z,998.42
2022-12-31T11:50:01.226Z,998.58
2022-12-31T11:53:10.252Z,998.39
2022-12-31T11:56:18.975Z,998.22
2022-12-31T11:59:27.157Z,998.42
2022-12-31T12:02:36.468Z,998.36
2022-12-31T12:05:45.492Z,998.50
2022-12-31T12:08:53.679Z,998.66
2022-12-31T12:12:03.189Z,998.75
2022-12-31T12:15:11.565Z,998.79
2022-12-31T12:18:20.097Z,998.83
2022-12-31T12:21:28.845Z,998.75
2022-12-31T12:24:37.268Z,998.71
2022-12-31T12:27:45.881Z,998.84
2022-12-31T12:30:54.641Z,998.71
2022-12-31T12:34:03.161Z,998.92
2022-12-31T12:37:11.583Z,999.03
2022-12-31T12:40:19.988Z,998.95
2022-12-31T12:43:28.573Z,998.87
2022-12-31T12:46:36.853Z,998.92
2022-12-31T12:49:45.315Z,998.98
2022-12-31T12:52:59.127Z,998.92
2022-12-31T12:55:57.198Z,999.02
2022-12-31T12:59:05.374Z,998.96
2022-12-31T13:02:14.450Z,998.97
2022-12-31T13:05:27.933Z,998.99
2022-12-31T13:08:26.363Z,999.07
2022-12-31T13:11:35.278Z,999.03
2022-12-31T13:14:43.472Z,999.01
2022-12-31T13:17:56.088Z,998.95
2022-12-31T13:20:55.413Z,999.02
2022-12-31T13:24:04.445Z,999.15
2022-12-31T13:27:13.137Z,999.16
2022-12-31T13:30:21.864Z,999.20
2022-12-31T13:33:31.119Z,999.29
2022-12-31T13:36:39.938Z,999.28
2022-12-31T13:39:48.601Z,999.32
2022-12-31T13:42:56.973Z,999.33
2022-12-31T13:46:05.514Z,999.23
2022-12-31T13:49:14.182Z,999.30
2022-12-31T13:52:23.277Z,999.37
2022-12-31T13:55:32.195Z,999.38
2022-12-31T13:58:41.138Z,999.44
2022-12-31T14:01:49.960Z,999.69
2022-12-31T14:04:49.373Z,999.60
2022-12-31T14:07:58.533Z,999.73
2022-12-31T14:11:07.589Z,999.64
2022-12-31T14:14:15.717Z,999.61
2022-12-31T14:17:24.669Z,999.62
2022-12-31T14:20:33.126Z,999.48
2022-12-31T14:23:41.818Z,999.44
2022-12-31T14:26:50.677Z,999.60
2022-12-31T14:29:59.639Z,999.44
2022-12-31T14:33:07.601Z,999.37
2022-12-31T14:36:16.615Z,999.43
2022-12-31T14:39:25.156Z,999.45
2022-12-31T14:42:33.918Z,999.56
2022-12-31T14:45:42.989Z,999.51
2022-12-31T14:48:51.486Z,999.51
2022-12-31T14:52:00.056Z,999.47
2022-12-31T14:55:08.900Z,999.57
2022-12-31T14:58:27.880Z,999.66
2022-12-31T15:01:23.024Z,999.70
2022-12-31T15:04:31.523Z,999.68
2022-12-31T15:07:40.411Z,999.80
2022-12-31T15:10:49.050Z,999.90
2022-12-31T15:13:57.556Z,999.85
2022-12-31T15:17:06.582Z,999.96
2022-12-31T15:20:17.587Z,999.90
2022-12-31T15:23:15.614Z,1000.08
2022-12-31T15:26:24.542Z,1000.07
2022-12-31T15:29:32.913Z,1000.09
2022-12-31T15:32:41.950Z,1000.01
2022-12-31T15:35:50.939Z,999.98
2022-12-31T15:38:59.352Z,1000.13
2022-12-31T15:45:13.736Z,1000.14
2022-12-31T15:48:21.891Z,1000.09
2022-12-31T15:51:31.372Z,1000.06
2022-12-31T15:54:39.564Z,1000.11
2022-12-31T15:57:48.316Z,1000.19
2022-12-31T16:00:57.276Z,1000.26
2022-12-31T16:04:05.831Z,1000.35
2022-12-31T16:07:14.537Z,1000.28
2022-12-31T16:10:23.885Z,1000.20
2022-12-31T16:13:32.443Z,1000.24
2022-12-31T16:16:40.898Z,1000.23
2022-12-31T16:19:49.476Z,1000.22
2022-12-31T16:22:58.002Z,1000.16
2022-12-31T16:26:06.963Z,1000.22
2022-12-31T16:29:15.790Z,1000.21
2022-12-31T16:32:16.461Z,1000.17
2022-12-31T16:35:25.298Z,1000.23
2022-12-31T16:38:33.752Z,1000.17
2022-12-31T16:41:42.636Z,1000.28
2022-12-31T16:44:50.612Z,1000.26
2022-12-31T16:47:59.578Z,1000.19
2022-12-31T16:51:08.821Z,1000.23
2022-12-31T16:54:18.777Z,1000.20
2022-12-31T16:57:27.433Z,1000.28
2022-12-31T17:00:37.144Z,1000.20
2022-12-31T17:03:47.856Z,1000.26
2022-12-31T17:06:57.916Z,1000.41
2022-12-31T17:10:06.346Z,1000.41
2022-12-31T17:13:28.213Z,1000.40
2022-12-31T17:16:20.859Z,1000.42
2022-12-31T17:19:29.438Z,1000.39
2022-12-31T17:22:38.327Z,1000.43
2022-12-31T17:25:46.365Z,1000.55
2022-12-31T17:28:55.363Z,1000.47
2022-12-31T17:32:04.295Z,1000.56
2022-12-31T17:35:12.375Z,1000.50
2022-12-31T17:38:21.316Z,1000.55
2022-12-31T17:41:29.909Z,1000.64
2022-12-31T17:44:37.910Z,1000.61
2022-12-31T17:47:47.162Z,1000.57
2022-12-31T17:50:55.992Z,1000.65
2022-12-31T17:54:04.121Z,1000.52
2022-12-31T17:57:13.122Z,1000.57
2022-12-31T18:00:21.867Z,1000.50
2022-12-31T18:03:30.566Z,1000.53
2022-12-31T18:06:39.040Z,1000.57
2022-12-31T18:09:47.441Z,1000.61
2022-12-31T18:12:56.244Z,1000.69
2022-12-31T18:16:04.885Z,1000.68
2022-12-31T18:19:23.528Z,1000.76
2022-12-31T18:22:19.194Z,1000.68
2022-12-31T18:25:27.276Z,1000.63
2022-12-31T18:28:36.228Z,1000.51
2022-12-31T18:31:45.061Z,1000.56
2022-12-31T18:34:53.067Z,1000.47
2022-12-31T18:38:02.674Z,1000.45
2022-12-31T18:41:10.717Z,1000.46
2022-12-31T18:44:19.787Z,1000.41
2022-12-31T18:47:31.405Z,1000.42
2022-12-31T18:50:32.981Z,1000.39
2022-12-31T18:53:41.773Z,1000.34
2022-12-31T18:56:56.813Z,1000.32
2022-12-31T18:59:54.430Z,1000.45
2022-12-31T19:03:03.543Z,1000.34
2022-12-31T19:06:12.294Z,1000.42
2022-12-31T19:09:44.033Z,1000.40
2022-12-31T19:12:26.688Z,1000.38
2022-12-31T19:15:34.865Z,1000.47
2022-12-31T19:18:44.178Z,1000.44
2022-12-31T19:21:52.456Z,1000.46
2022-12-31T19:25:01.625Z,1000.43
2022-12-31T19:28:10.113Z,1000.46
2022-12-31T19:31:19.007Z,1000.49
2022-12-31T19:34:27.865Z,1000.45
2022-12-31T19:37:37.012Z,1000.41
2022-12-31T19:40:45.179Z,1000.34
2022-12-31T19:43:54.512Z,1000.36
2022-12-31T19:47:02.668Z,1000.24
2022-12-31T19:50:11.980Z,1000.34
2022-12-31T19:53:20.373Z,1000.44
2022-12-31T19:56:29.011Z,1000.58
2022-12-31T19:59:37.652Z,1000.64
2022-12-31T20:02:47.108Z,1000.65
2022-12-31T20:05:55.374Z,1000.62
2022-12-31T20:09:04.111Z,1000.70
2022-12-31T20:12:12.253Z,1000.76
2022-12-31T20:15:21.311Z,1000.83
2022-12-31T20:18:30.207Z,1000.81
2022-12-31T20:21:38.847Z,1000.72
2022-12-31T20:24:47.464Z,1000.69
2022-12-31T20:27:55.776Z,1000.75
2022-12-31T20:31:04.340Z,1000.75
2022-12-31T20:34:13.539Z,1000.79
2022-12-31T20:37:21.509Z,1000.76
2022-12-31T20:40:30.687Z,1000.65
2022-12-31T20:43:39.177Z,1000.68
2022-12-31T20:46:47.790Z,1000.60
2022-12-31T20:50:12.799Z,1000.58
2022-12-31T20:53:02.059Z,1000.74
2022-12-31T20:56:10.564Z,1000.80
2022-12-31T20:59:20.005Z,1000.76
2022-12-31T21:02:40.671Z,1000.75
2022-12-31T21:05:34.181Z,1000.86
2022-12-31T21:08:43.010Z,1000.84
2022-12-31T21:11:51.972Z,1000.98
2022-12-31T21:15:00.256Z,1000.93
2022-12-31T21:18:09.125Z,1000.97
2022-12-31T21:21:17.539Z,1001.08
2022-12-31T21:24:26.434Z,1001.09
2022-12-31T21:27:35.088Z,1001.21
2022-12-31T21:30:43.545Z,1001.29
2022-12-31T21:33:51.998Z,1001.31
2022-12-31T21:37:00.785Z,1001.33
2022-12-31T21:40:09.266Z,1001.23
2022-12-31T21:43:17.783Z,1001.24
2022-12-31T21:46:25.992Z,1001.21
2022-12-31T21:49:34.277Z,1001.24
2022-12-31T21:52:43.203Z,1001.18
2022-12-31T21:55:51.266Z,1001.26
2022-12-31T21:58:59.953Z,1001.34
2022-12-31T22:02:08.201Z,1001.35
2022-12-31T22:05:23.239Z,1001.33
2022-12-31T22:08:22.278Z,1001.36
2022-12-31T22:11:30.356Z,1001.36
2022-12-31T22:14:38.849Z,1001.35
2022-12-31T22:17:47.377Z,1001.40
2022-12-31T22:20:56.078Z,1001.35
2022-12-31T22:24:04.992Z,1001.37
2022-12-31T22:27:28.285Z,1001.45
2022-12-31T22:30:19.102Z,1001.47
2022-12-31T22:33:27.939Z,1001.51
2022-12-31T22:36:36.002Z,1001.49
2022-12-31T22:39:45.055Z,1001.62
2022-12-31T22:42:54.024Z,1001.73
2022-12-31T22:46:02.139Z,1001.78
2022-12-31T22:49:11.040Z,1001.78
2022-12-31T22:52:19.596Z,1001.78
2022-12-31T22:55:27.917Z,1001.94
2022-12-31T22:58:36.517Z,1001.92
2022-12-31T23:01:45.100Z,1001.98
2022-12-31T23:04:53.722Z,1002.06
2022-12-31T23:07:59.639Z,1002.06
2022-12-31T23:11:07.702Z,1002.12
2022-12-31T23:14:16.273Z,1002.14
2022-12-31T23:17:31.589Z,1002.17
2022-12-31T23:20:29.659Z,1002.26
2022-12-31T23:23:38.105Z,1002.25
2022-12-31T23:26:46.765Z,1002.27
2022-12-31T23:29:55.957Z,1002.33
2022-12-31T23:33:04.321Z,1002.37
2022-12-31T23:36:12.869Z,1002.37
2022-12-31T23:39:22.451Z,1002.30
2022-12-31T23:42:30.651Z,1002.37
2022-12-31T23:45:39.851Z,1002.37
2022-12-31T23:48:48.601Z,1002.38
2022-12-31T23:51:56.501Z,1002.40
2022-12-31T23:55:05.429Z,1002.48
2022-12-31T23:58:14.271Z,1002.51
